sensor_id;sensor_type;location;lat;lon;timestamp;P1;durP1;ratioP1;P2;durP2;ratioP2
70228;SDS011;57617;51.988;5.854;2023-03-01T00:02:05;13.00;;;5.57;;
70228;SDS011;57617;51.988;5.854;2023-03-01T00:04:31;11.63;;;4.93;;
70228;SDS011;57617;51.988;5.854;2023-03-01T00:06:57;10.43;;;5.47;;
70228;SDS011;57617;51.988;5.854;2023-03-01T00:09:22;11.17;;;5.17;;
70228;SDS011;57617;51.988;5.854;2023-03-01T00:11:47;13.33;;;5.40;;
70228;SDS011;57617;51.988;5.854;2023-03-01T00:14:13;11.57;;;5.70;;
70228;SDS011;57617;51.988;5.854;2023-03-01T00:16:41;15.53;;;5.67;;
70228;SDS011;57617;51.988;5.854;2023-03-01T00:19:08;11.77;;;5.37;;
70228;SDS011;57617;51.988;5.854;2023-03-01T00:21:37;11.83;;;5.40;;
70228;SDS011;57617;51.988;5.854;2023-03-01T00:24:02;14.23;;;5.70;;
70228;SDS011;57617;51.988;5.854;2023-03-01T00:26:28;16.37;;;5.33;;
70228;SDS011;57617;51.988;5.854;2023-03-01T00:28:54;12.47;;;5.97;;
70228;SDS011;57617;51.988;5.854;2023-03-01T00:31:23;11.80;;;5.47;;
70228;SDS011;57617;51.988;5.854;2023-03-01T00:33:56;11.97;;;5.73;;
70228;SDS011;57617;51.988;5.854;2023-03-01T00:36:24;13.43;;;6.07;;
70228;SDS011;57617;51.988;5.854;2023-03-01T00:38:51;11.70;;;5.23;;
70228;SDS011;57617;51.988;5.854;2023-03-01T00:41:17;11.47;;;5.43;;
70228;SDS011;57617;51.988;5.854;2023-03-01T00:43:44;13.07;;;5.73;;
70228;SDS011;57617;51.988;5.854;2023-03-01T00:46:11;9.57;;;5.00;;
70228;SDS011;57617;51.988;5.854;2023-03-01T00:48:38;11.93;;;5.57;;
70228;SDS011;57617;51.988;5.854;2023-03-01T00:51:05;12.33;;;5.70;;
70228;SDS011;57617;51.988;5.854;2023-03-01T00:53:37;11.30;;;5.77;;
70228;SDS011;57617;51.988;5.854;2023-03-01T00:56:03;15.10;;;5.50;;
70228;SDS011;57617;51.988;5.854;2023-03-01T00:58:30;11.87;;;5.90;;
70228;SDS011;57617;51.988;5.854;2023-03-01T01:00:56;12.73;;;5.20;;
70228;SDS011;57617;51.988;5.854;2023-03-01T01:03:21;9.73;;;5.30;;
70228;SDS011;57617;51.988;5.854;2023-03-01T01:05:49;11.93;;;5.20;;
70228;SDS011;57617;51.988;5.854;2023-03-01T01:08:15;8.20;;;4.87;;
70228;SDS011;57617;51.988;5.854;2023-03-01T01:10:43;10.53;;;5.20;;
70228;SDS011;57617;51.988;5.854;2023-03-01T01:13:10;9.13;;;5.27;;
70228;SDS011;57617;51.988;5.854;2023-03-01T01:15:39;10.20;;;5.20;;
70228;SDS011;57617;51.988;5.854;2023-03-01T01:18:04;10.33;;;5.33;;
70228;SDS011;57617;51.988;5.854;2023-03-01T01:20:30;12.27;;;5.50;;
70228;SDS011;57617;51.988;5.854;2023-03-01T01:22:55;9.53;;;4.90;;
70228;SDS011;57617;51.988;5.854;2023-03-01T01:25:21;9.77;;;5.23;;
70228;SDS011;57617;51.988;5.854;2023-03-01T01:27:46;11.60;;;4.97;;
70228;SDS011;57617;51.988;5.854;2023-03-01T01:30:12;13.43;;;5.80;;
70228;SDS011;57617;51.988;5.854;2023-03-01T01:32:38;11.13;;;5.70;;
70228;SDS011;57617;51.988;5.854;2023-03-01T01:35:03;12.33;;;5.50;;
70228;SDS011;57617;51.988;5.854;2023-03-01T01:37:29;12.57;;;5.90;;
70228;SDS011;57617;51.988;5.854;2023-03-01T01:39:58;12.20;;;6.10;;
70228;SDS011;57617;51.988;5.854;2023-03-01T01:42:25;11.53;;;5.77;;
70228;SDS011;57617;51.988;5.854;2023-03-01T01:47:55;12.13;;;5.83;;
70228;SDS011;57617;51.988;5.854;2023-03-01T01:50:25;11.97;;;5.83;;
70228;SDS011;57617;51.988;5.854;2023-03-01T01:52:51;11.83;;;5.80;;
70228;SDS011;57617;51.988;5.854;2023-03-01T01:55:21;14.73;;;6.57;;
70228;SDS011;57617;51.988;5.854;2023-03-01T01:57:52;12.67;;;6.00;;
70228;SDS011;57617;51.988;5.854;2023-03-01T02:00:23;12.83;;;5.93;;
70228;SDS011;57617;51.988;5.854;2023-03-01T02:03:00;13.37;;;6.33;;
70228;SDS011;57617;51.988;5.854;2023-03-01T02:05:39;11.67;;;6.17;;
70228;SDS011;57617;51.988;5.854;2023-03-01T02:08:12;12.60;;;6.00;;
70228;SDS011;57617;51.988;5.854;2023-03-01T02:10:39;13.43;;;6.27;;
70228;SDS011;57617;51.988;5.854;2023-03-01T02:13:06;10.77;;;5.60;;
70228;SDS011;57617;51.988;5.854;2023-03-01T02:15:32;11.27;;;6.00;;
70228;SDS011;57617;51.988;5.854;2023-03-01T02:18:00;13.20;;;6.17;;
70228;SDS011;57617;51.988;5.854;2023-03-01T02:20:29;10.87;;;5.63;;
70228;SDS011;57617;51.988;5.854;2023-03-01T02:22:57;10.60;;;5.53;;
70228;SDS011;57617;51.988;5.854;2023-03-01T02:25:36;11.07;;;5.57;;
70228;SDS011;57617;51.988;5.854;2023-03-01T02:30:43;14.20;;;5.43;;
70228;SDS011;57617;51.988;5.854;2023-03-01T02:33:31;10.77;;;5.57;;
70228;SDS011;57617;51.988;5.854;2023-03-01T02:36:05;11.20;;;5.63;;
70228;SDS011;57617;51.988;5.854;2023-03-01T02:38:33;11.80;;;5.43;;
70228;SDS011;57617;51.988;5.854;2023-03-01T02:40:58;10.87;;;5.30;;
70228;SDS011;57617;51.988;5.854;2023-03-01T02:43:27;11.63;;;5.93;;
70228;SDS011;57617;51.988;5.854;2023-03-01T02:45:58;13.07;;;5.73;;
70228;SDS011;57617;51.988;5.854;2023-03-01T02:48:26;12.90;;;6.10;;
70228;SDS011;57617;51.988;5.854;2023-03-01T02:53:31;11.90;;;5.50;;
70228;SDS011;57617;51.988;5.854;2023-03-01T02:55:58;11.97;;;6.00;;
70228;SDS011;57617;51.988;5.854;2023-03-01T02:58:24;11.83;;;5.50;;
70228;SDS011;57617;51.988;5.854;2023-03-01T03:00:49;9.87;;;5.47;;
70228;SDS011;57617;51.988;5.854;2023-03-01T03:03:16;11.97;;;6.10;;
70228;SDS011;57617;51.988;5.854;2023-03-01T03:05:44;13.20;;;5.70;;
70228;SDS011;57617;51.988;5.854;2023-03-01T03:08:09;15.80;;;5.80;;
70228;SDS011;57617;51.988;5.854;2023-03-01T03:10:37;11.37;;;5.80;;
70228;SDS011;57617;51.988;5.854;2023-03-01T03:13:08;11.73;;;5.80;;
70228;SDS011;57617;51.988;5.854;2023-03-01T03:15:36;12.13;;;6.50;;
70228;SDS011;57617;51.988;5.854;2023-03-01T03:18:04;10.53;;;5.67;;
70228;SDS011;57617;51.988;5.854;2023-03-01T03:20:31;11.33;;;5.77;;
70228;SDS011;57617;51.988;5.854;2023-03-01T03:22:56;12.73;;;5.90;;
70228;SDS011;57617;51.988;5.854;2023-03-01T03:25:23;14.37;;;6.27;;
70228;SDS011;57617;51.988;5.854;2023-03-01T03:27:50;11.23;;;5.23;;
70228;SDS011;57617;51.988;5.854;2023-03-01T03:30:21;11.33;;;5.30;;
70228;SDS011;57617;51.988;5.854;2023-03-01T03:32:48;11.23;;;5.60;;
70228;SDS011;57617;51.988;5.854;2023-03-01T03:35:24;10.23;;;5.47;;
70228;SDS011;57617;51.988;5.854;2023-03-01T03:37:51;11.80;;;5.43;;
70228;SDS011;57617;51.988;5.854;2023-03-01T03:40:27;13.63;;;5.83;;
70228;SDS011;57617;51.988;5.854;2023-03-01T03:42:54;10.43;;;5.07;;
70228;SDS011;57617;51.988;5.854;2023-03-01T03:45:20;9.80;;;5.30;;
70228;SDS011;57617;51.988;5.854;2023-03-01T03:47:45;10.07;;;5.17;;
70228;SDS011;57617;51.988;5.854;2023-03-01T03:50:11;11.63;;;5.37;;
70228;SDS011;57617;51.988;5.854;2023-03-01T03:52:38;10.07;;;5.17;;
70228;SDS011;57617;51.988;5.854;2023-03-01T03:55:04;13.20;;;5.73;;
70228;SDS011;57617;51.988;5.854;2023-03-01T03:57:36;9.70;;;5.20;;
70228;SDS011;57617;51.988;5.854;2023-03-01T04:00:03;10.47;;;5.30;;
70228;SDS011;57617;51.988;5.854;2023-03-01T04:02:30;11.53;;;5.47;;
70228;SDS011;57617;51.988;5.854;2023-03-01T04:04:56;11.37;;;4.90;;
70228;SDS011;57617;51.988;5.854;2023-03-01T04:07:21;12.53;;;5.30;;
70228;SDS011;57617;51.988;5.854;2023-03-01T04:09:46;10.73;;;5.60;;
70228;SDS011;57617;51.988;5.854;2023-03-01T04:12:12;10.70;;;5.33;;
70228;SDS011;57617;51.988;5.854;2023-03-01T04:14:37;9.50;;;5.03;;
70228;SDS011;57617;51.988;5.854;2023-03-01T04:17:02;13.40;;;5.40;;
70228;SDS011;57617;51.988;5.854;2023-03-01T04:19:30;12.50;;;5.00;;
70228;SDS011;57617;51.988;5.854;2023-03-01T04:22:00;9.93;;;5.27;;
70228;SDS011;57617;51.988;5.854;2023-03-01T04:24:32;11.60;;;5.70;;
70228;SDS011;57617;51.988;5.854;2023-03-01T04:26:58;11.07;;;5.33;;
70228;SDS011;57617;51.988;5.854;2023-03-01T04:29:23;10.93;;;5.10;;
70228;SDS011;57617;51.988;5.854;2023-03-01T04:31:48;12.43;;;6.93;;
70228;SDS011;57617;51.988;5.854;2023-03-01T04:34:14;10.83;;;5.80;;
70228;SDS011;57617;51.988;5.854;2023-03-01T04:36:39;10.17;;;5.17;;
70228;SDS011;57617;51.988;5.854;2023-03-01T04:39:04;11.27;;;5.10;;
70228;SDS011;57617;51.988;5.854;2023-03-01T04:41:37;10.90;;;4.93;;
70228;SDS011;57617;51.988;5.854;2023-03-01T04:44:04;10.50;;;5.13;;
70228;SDS011;57617;51.988;5.854;2023-03-01T04:46:29;12.53;;;5.70;;
70228;SDS011;57617;51.988;5.854;2023-03-01T04:48:55;12.00;;;5.30;;
70228;SDS011;57617;51.988;5.854;2023-03-01T04:51:20;12.40;;;5.67;;
70228;SDS011;57617;51.988;5.854;2023-03-01T04:53:45;11.67;;;5.47;;
70228;SDS011;57617;51.988;5.854;2023-03-01T04:56:11;10.93;;;5.37;;
70228;SDS011;57617;51.988;5.854;2023-03-01T04:58:38;13.13;;;5.00;;
70228;SDS011;57617;51.988;5.854;2023-03-01T05:01:12;12.50;;;5.60;;
70228;SDS011;57617;51.988;5.854;2023-03-01T05:03:42;10.37;;;5.43;;
70228;SDS011;57617;51.988;5.854;2023-03-01T05:06:09;11.03;;;5.43;;
70228;SDS011;57617;51.988;5.854;2023-03-01T05:08:35;12.73;;;5.80;;
70228;SDS011;57617;51.988;5.854;2023-03-01T05:11:04;10.30;;;5.10;;
70228;SDS011;57617;51.988;5.854;2023-03-01T05:13:30;12.50;;;5.40;;
70228;SDS011;57617;51.988;5.854;2023-03-01T05:15:57;10.40;;;5.47;;
70228;SDS011;57617;51.988;5.854;2023-03-01T05:18:24;12.23;;;5.33;;
70228;SDS011;57617;51.988;5.854;2023-03-01T05:20:53;11.20;;;4.93;;
70228;SDS011;57617;51.988;5.854;2023-03-01T05:23:28;11.57;;;5.07;;
70228;SDS011;57617;51.988;5.854;2023-03-01T05:25:57;11.73;;;5.47;;
70228;SDS011;57617;51.988;5.854;2023-03-01T05:28:24;10.83;;;5.10;;
70228;SDS011;57617;51.988;5.854;2023-03-01T05:30:49;10.40;;;4.93;;
70228;SDS011;57617;51.988;5.854;2023-03-01T05:33:16;11.63;;;5.27;;
70228;SDS011;57617;51.988;5.854;2023-03-01T05:35:43;12.67;;;5.43;;
70228;SDS011;57617;51.988;5.854;2023-03-01T05:38:09;10.20;;;5.00;;
70228;SDS011;57617;51.988;5.854;2023-03-01T05:40:38;10.00;;;4.80;;
70228;SDS011;57617;51.988;5.854;2023-03-01T05:43:04;9.87;;;4.73;;
70228;SDS011;57617;51.988;5.854;2023-03-01T05:45:30;11.27;;;5.07;;
70228;SDS011;57617;51.988;5.854;2023-03-01T05:47:57;13.60;;;5.30;;
70228;SDS011;57617;51.988;5.854;2023-03-01T05:50:24;9.80;;;5.20;;
70228;SDS011;57617;51.988;5.854;2023-03-01T05:53:15;9.70;;;5.40;;
70228;SDS011;57617;51.988;5.854;2023-03-01T05:55:40;10.43;;;4.93;;
70228;SDS011;57617;51.988;5.854;2023-03-01T05:58:08;12.60;;;5.03;;
70228;SDS011;57617;51.988;5.854;2023-03-01T06:00:36;15.10;;;5.30;;
70228;SDS011;57617;51.988;5.854;2023-03-01T06:03:02;11.70;;;4.70;;
70228;SDS011;57617;51.988;5.854;2023-03-01T06:05:28;13.70;;;5.90;;
70228;SDS011;57617;51.988;5.854;2023-03-01T06:07:54;12.23;;;5.10;;
70228;SDS011;57617;51.988;5.854;2023-03-01T06:10:21;11.70;;;5.77;;
70228;SDS011;57617;51.988;5.854;2023-03-01T06:12:46;11.80;;;5.47;;
70228;SDS011;57617;51.988;5.854;2023-03-01T06:15:13;11.03;;;5.23;;
70228;SDS011;57617;51.988;5.854;2023-03-01T06:17:40;10.67;;;5.60;;
70228;SDS011;57617;51.988;5.854;2023-03-01T06:20:08;12.23;;;5.57;;
70228;SDS011;57617;51.988;5.854;2023-03-01T06:22:35;13.53;;;5.50;;
70228;SDS011;57617;51.988;5.854;2023-03-01T06:25:01;11.50;;;5.63;;
70228;SDS011;57617;51.988;5.854;2023-03-01T06:27:26;12.43;;;5.70;;
70228;SDS011;57617;51.988;5.854;2023-03-01T06:29:51;12.43;;;5.73;;
70228;SDS011;57617;51.988;5.854;2023-03-01T06:32:17;12.90;;;5.83;;
70228;SDS011;57617;51.988;5.854;2023-03-01T06:34:42;15.17;;;5.53;;
70228;SDS011;57617;51.988;5.854;2023-03-01T06:37:08;11.37;;;5.30;;
70228;SDS011;57617;51.988;5.854;2023-03-01T06:39:33;12.10;;;5.30;;
70228;SDS011;57617;51.988;5.854;2023-03-01T06:41:59;12.37;;;5.30;;
70228;SDS011;57617;51.988;5.854;2023-03-01T06:44:24;14.23;;;4.93;;
70228;SDS011;57617;51.988;5.854;2023-03-01T06:46:50;9.90;;;5.30;;
70228;SDS011;57617;51.988;5.854;2023-03-01T06:49:15;13.73;;;4.80;;
70228;SDS011;57617;51.988;5.854;2023-03-01T06:51:41;11.60;;;5.27;;
70228;SDS011;57617;51.988;5.854;2023-03-01T06:54:06;12.07;;;5.53;;
70228;SDS011;57617;51.988;5.854;2023-03-01T06:56:32;12.73;;;5.03;;
70228;SDS011;57617;51.988;5.854;2023-03-01T06:58:57;13.27;;;5.73;;
70228;SDS011;57617;51.988;5.854;2023-03-01T07:01:23;10.53;;;5.50;;
70228;SDS011;57617;51.988;5.854;2023-03-01T07:03:48;10.57;;;5.50;;
70228;SDS011;57617;51.988;5.854;2023-03-01T07:06:13;12.53;;;6.00;;
70228;SDS011;57617;51.988;5.854;2023-03-01T07:08:39;12.20;;;5.90;;
70228;SDS011;57617;51.988;5.854;2023-03-01T07:11:04;11.30;;;5.50;;
70228;SDS011;57617;51.988;5.854;2023-03-01T07:13:30;10.10;;;5.77;;
70228;SDS011;57617;51.988;5.854;2023-03-01T07:15:56;11.10;;;5.63;;
70228;SDS011;57617;51.988;5.854;2023-03-01T07:18:21;10.73;;;5.53;;
70228;SDS011;57617;51.988;5.854;2023-03-01T07:20:47;12.60;;;5.33;;
70228;SDS011;57617;51.988;5.854;2023-03-01T07:23:12;14.97;;;6.03;;
70228;SDS011;57617;51.988;5.854;2023-03-01T07:25:38;10.57;;;5.70;;
70228;SDS011;57617;51.988;5.854;2023-03-01T07:28:03;14.10;;;6.03;;
70228;SDS011;57617;51.988;5.854;2023-03-01T07:30:29;14.63;;;7.30;;
70228;SDS011;57617;51.988;5.854;2023-03-01T07:32:54;12.60;;;6.40;;
70228;SDS011;57617;51.988;5.854;2023-03-01T07:35:21;13.37;;;6.43;;
70228;SDS011;57617;51.988;5.854;2023-03-01T07:37:47;17.03;;;6.43;;
70228;SDS011;57617;51.988;5.854;2023-03-01T07:40:13;15.17;;;5.93;;
70228;SDS011;57617;51.988;5.854;2023-03-01T07:42:38;12.20;;;5.87;;
70228;SDS011;57617;51.988;5.854;2023-03-01T07:45:04;13.90;;;6.27;;
70228;SDS011;57617;51.988;5.854;2023-03-01T07:47:31;11.83;;;5.53;;
70228;SDS011;57617;51.988;5.854;2023-03-01T07:49:56;12.70;;;5.83;;
70228;SDS011;57617;51.988;5.854;2023-03-01T07:52:21;16.80;;;5.37;;
70228;SDS011;57617;51.988;5.854;2023-03-01T07:54:46;13.30;;;6.07;;
70228;SDS011;57617;51.988;5.854;2023-03-01T07:57:12;11.37;;;5.63;;
70228;SDS011;57617;51.988;5.854;2023-03-01T07:59:37;11.60;;;5.77;;
70228;SDS011;57617;51.988;5.854;2023-03-01T08:02:03;11.93;;;5.97;;
70228;SDS011;57617;51.988;5.854;2023-03-01T08:04:28;11.63;;;5.83;;
70228;SDS011;57617;51.988;5.854;2023-03-01T08:06:54;10.57;;;5.67;;
70228;SDS011;57617;51.988;5.854;2023-03-01T08:09:20;10.13;;;5.37;;
70228;SDS011;57617;51.988;5.854;2023-03-01T08:11:45;14.17;;;5.50;;
70228;SDS011;57617;51.988;5.854;2023-03-01T08:14:11;10.37;;;5.50;;
70228;SDS011;57617;51.988;5.854;2023-03-01T08:16:36;15.47;;;5.50;;
70228;SDS011;57617;51.988;5.854;2023-03-01T08:19:06;13.17;;;6.00;;
70228;SDS011;57617;51.988;5.854;2023-03-01T08:21:32;10.47;;;5.50;;
70228;SDS011;57617;51.988;5.854;2023-03-01T08:23:59;11.33;;;5.33;;
70228;SDS011;57617;51.988;5.854;2023-03-01T08:26:31;13.10;;;5.50;;
70228;SDS011;57617;51.988;5.854;2023-03-01T08:28:59;10.57;;;5.60;;
70228;SDS011;57617;51.988;5.854;2023-03-01T08:31:26;13.67;;;6.00;;
70228;SDS011;57617;51.988;5.854;2023-03-01T08:33:55;14.03;;;5.33;;
70228;SDS011;57617;51.988;5.854;2023-03-01T08:36:26;9.17;;;5.43;;
70228;SDS011;57617;51.988;5.854;2023-03-01T08:38:53;12.10;;;5.80;;
70228;SDS011;57617;51.988;5.854;2023-03-01T08:41:19;11.73;;;5.23;;
70228;SDS011;57617;51.988;5.854;2023-03-01T08:43:45;12.17;;;5.67;;
70228;SDS011;57617;51.988;5.854;2023-03-01T08:46:10;11.03;;;5.47;;
70228;SDS011;57617;51.988;5.854;2023-03-01T08:48:36;9.90;;;4.80;;
70228;SDS011;57617;51.988;5.854;2023-03-01T08:51:12;11.77;;;4.70;;
70228;SDS011;57617;51.988;5.854;2023-03-01T08:53:39;11.27;;;5.40;;
70228;SDS011;57617;51.988;5.854;2023-03-01T08:56:05;10.60;;;4.80;;
70228;SDS011;57617;51.988;5.854;2023-03-01T08:58:31;8.57;;;4.87;;
70228;SDS011;57617;51.988;5.854;2023-03-01T09:00:56;13.73;;;4.88;;
70228;SDS011;57617;51.988;5.854;2023-03-01T09:03:22;9.30;;;4.83;;
70228;SDS011;57617;51.988;5.854;2023-03-01T09:05:48;9.47;;;4.47;;
70228;SDS011;57617;51.988;5.854;2023-03-01T09:08:15;8.97;;;4.43;;
70228;SDS011;57617;51.988;5.854;2023-03-01T09:10:40;9.03;;;4.07;;
70228;SDS011;57617;51.988;5.854;2023-03-01T09:13:06;7.67;;;4.00;;
70228;SDS011;57617;51.988;5.854;2023-03-01T09:15:31;8.03;;;3.63;;
70228;SDS011;57617;51.988;5.854;2023-03-01T09:17:58;9.30;;;4.10;;
70228;SDS011;57617;51.988;5.854;2023-03-01T09:20:24;10.40;;;3.88;;
70228;SDS011;57617;51.988;5.854;2023-03-01T09:22:49;10.20;;;4.77;;
70228;SDS011;57617;51.988;5.854;2023-03-01T09:25:14;7.97;;;3.97;;
70228;SDS011;57617;51.988;5.854;2023-03-01T09:27:40;7.90;;;3.53;;
70228;SDS011;57617;51.988;5.854;2023-03-01T09:30:05;7.25;;;3.80;;
70228;SDS011;57617;51.988;5.854;2023-03-01T09:32:31;8.48;;;3.90;;
70228;SDS011;57617;51.988;5.854;2023-03-01T09:34:56;7.25;;;3.58;;
70228;SDS011;57617;51.988;5.854;2023-03-01T09:37:31;7.25;;;3.50;;
70228;SDS011;57617;51.988;5.854;2023-03-01T09:39:58;7.78;;;3.75;;
70228;SDS011;57617;51.988;5.854;2023-03-01T09:42:24;6.15;;;3.17;;
70228;SDS011;57617;51.988;5.854;2023-03-01T09:44:54;9.88;;;3.88;;
70228;SDS011;57617;51.988;5.854;2023-03-01T09:47:26;9.50;;;4.25;;
70228;SDS011;57617;51.988;5.854;2023-03-01T09:49:58;9.05;;;4.60;;
70228;SDS011;57617;51.988;5.854;2023-03-01T09:52:33;8.30;;;4.38;;
70228;SDS011;57617;51.988;5.854;2023-03-01T09:55:12;9.70;;;5.20;;
70228;SDS011;57617;51.988;5.854;2023-03-01T09:57:45;12.65;;;6.15;;
70228;SDS011;57617;51.988;5.854;2023-03-01T10:11:19;15.07;;;6.60;;
70228;SDS011;57617;51.988;5.854;2023-03-01T10:13:53;12.43;;;6.43;;
70228;SDS011;57617;51.988;5.854;2023-03-01T10:19:16;10.82;;;6.03;;
70228;SDS011;57617;51.988;5.854;2023-03-01T10:21:48;11.23;;;5.88;;
70228;SDS011;57617;51.988;5.854;2023-03-01T10:24:16;12.80;;;5.75;;
70228;SDS011;57617;51.988;5.854;2023-03-01T10:26:48;11.85;;;5.82;;
70228;SDS011;57617;51.988;5.854;2023-03-01T10:29:18;10.27;;;5.38;;
70228;SDS011;57617;51.988;5.854;2023-03-01T10:31:49;13.60;;;6.63;;
70228;SDS011;57617;51.988;5.854;2023-03-01T10:34:30;12.27;;;5.30;;
70228;SDS011;57617;51.988;5.854;2023-03-01T10:36:59;12.15;;;5.63;;
70228;SDS011;57617;51.988;5.854;2023-03-01T10:39:34;11.57;;;5.43;;
70228;SDS011;57617;51.988;5.854;2023-03-01T10:42:00;9.60;;;4.97;;
70228;SDS011;57617;51.988;5.854;2023-03-01T10:47:13;11.70;;;5.45;;
70228;SDS011;57617;51.988;5.854;2023-03-01T10:52:30;12.07;;;5.65;;
70228;SDS011;57617;51.988;5.854;2023-03-01T10:57:40;10.27;;;4.85;;
70228;SDS011;57617;51.988;5.854;2023-03-01T11:00:25;11.73;;;4.90;;
70228;SDS011;57617;51.988;5.854;2023-03-01T11:03:01;8.82;;;4.28;;
70228;SDS011;57617;51.988;5.854;2023-03-01T11:05:29;10.18;;;4.68;;
70228;SDS011;57617;51.988;5.854;2023-03-01T11:07:56;9.43;;;4.57;;
70228;SDS011;57617;51.988;5.854;2023-03-01T11:10:25;10.27;;;4.60;;
70228;SDS011;57617;51.988;5.854;2023-03-01T11:13:09;9.68;;;4.10;;
70228;SDS011;57617;51.988;5.854;2023-03-01T11:15:40;10.02;;;4.13;;
70228;SDS011;57617;51.988;5.854;2023-03-01T11:18:17;8.40;;;4.07;;
70228;SDS011;57617;51.988;5.854;2023-03-01T11:20:45;7.13;;;4.00;;
70228;SDS011;57617;51.988;5.854;2023-03-01T11:23:12;8.90;;;4.25;;
70228;SDS011;57617;51.988;5.854;2023-03-01T11:25:42;7.85;;;3.90;;
70228;SDS011;57617;51.988;5.854;2023-03-01T11:28:13;7.95;;;3.65;;
70228;SDS011;57617;51.988;5.854;2023-03-01T11:33:24;8.05;;;4.07;;
70228;SDS011;57617;51.988;5.854;2023-03-01T11:36:00;6.10;;;3.47;;
70228;SDS011;57617;51.988;5.854;2023-03-01T11:38:26;6.90;;;3.80;;
70228;SDS011;57617;51.988;5.854;2023-03-01T11:41:01;6.88;;;3.92;;
70228;SDS011;57617;51.988;5.854;2023-03-01T11:43:34;8.75;;;4.22;;
70228;SDS011;57617;51.988;5.854;2023-03-01T11:49:02;7.55;;;4.03;;
70228;SDS011;57617;51.988;5.854;2023-03-01T12:00:20;8.18;;;4.10;;
70228;SDS011;57617;51.988;5.854;2023-03-01T12:11:51;8.75;;;3.78;;
70228;SDS011;57617;51.988;5.854;2023-03-01T12:16:59;7.70;;;4.07;;
70228;SDS011;57617;51.988;5.854;2023-03-01T12:22:56;7.30;;;4.22;;
70228;SDS011;57617;51.988;5.854;2023-03-01T12:25:34;7.60;;;4.50;;
70228;SDS011;57617;51.988;5.854;2023-03-01T12:28:18;9.00;;;4.65;;
70228;SDS011;57617;51.988;5.854;2023-03-01T12:38:37;8.15;;;4.55;;
70228;SDS011;57617;51.988;5.854;2023-03-01T12:50:00;8.13;;;4.60;;
70228;SDS011;57617;51.988;5.854;2023-03-01T12:52:43;7.50;;;4.25;;
70228;SDS011;57617;51.988;5.854;2023-03-01T12:55:22;7.45;;;4.30;;
70228;SDS011;57617;51.988;5.854;2023-03-01T12:58:00;9.35;;;4.35;;
70228;SDS011;57617;51.988;5.854;2023-03-01T13:01:33;7.28;;;4.18;;
70228;SDS011;57617;51.988;5.854;2023-03-01T13:04:07;7.22;;;4.10;;
70228;SDS011;57617;51.988;5.854;2023-03-01T13:11:46;9.77;;;4.57;;
70228;SDS011;57617;51.988;5.854;2023-03-01T13:16:45;9.18;;;4.43;;
70228;SDS011;57617;51.988;5.854;2023-03-01T13:19:17;8.27;;;4.50;;
70228;SDS011;57617;51.988;5.854;2023-03-01T13:21:45;7.15;;;4.28;;
70228;SDS011;57617;51.988;5.854;2023-03-01T13:24:24;8.55;;;4.65;;
70228;SDS011;57617;51.988;5.854;2023-03-01T13:29:30;7.70;;;4.07;;
70228;SDS011;57617;51.988;5.854;2023-03-01T13:32:28;8.20;;;3.90;;
70228;SDS011;57617;51.988;5.854;2023-03-01T13:37:27;7.82;;;4.60;;
70228;SDS011;57617;51.988;5.854;2023-03-01T13:39:56;6.88;;;3.85;;
70228;SDS011;57617;51.988;5.854;2023-03-01T13:42:34;9.43;;;4.20;;
70228;SDS011;57617;51.988;5.854;2023-03-01T13:45:02;7.15;;;3.95;;
70228;SDS011;57617;51.988;5.854;2023-03-01T13:47:30;7.95;;;4.65;;
70228;SDS011;57617;51.988;5.854;2023-03-01T13:49:57;8.18;;;4.28;;
70228;SDS011;57617;51.988;5.854;2023-03-01T13:57:38;7.95;;;4.43;;
70228;SDS011;57617;51.988;5.854;2023-03-01T14:00:04;8.13;;;4.13;;
70228;SDS011;57617;51.988;5.854;2023-03-01T14:02:30;6.72;;;3.78;;
70228;SDS011;57617;51.988;5.854;2023-03-01T14:05:00;12.13;;;4.22;;
70228;SDS011;57617;51.988;5.854;2023-03-01T14:07:26;7.28;;;4.10;;
70228;SDS011;57617;51.988;5.854;2023-03-01T14:09:55;7.55;;;4.15;;
70228;SDS011;57617;51.988;5.854;2023-03-01T14:12:37;11.23;;;4.65;;
70228;SDS011;57617;51.988;5.854;2023-03-01T14:15:16;8.10;;;4.53;;
70228;SDS011;57617;51.988;5.854;2023-03-01T14:17:58;7.97;;;4.40;;
70228;SDS011;57617;51.988;5.854;2023-03-01T14:20:49;7.05;;;4.22;;
70228;SDS011;57617;51.988;5.854;2023-03-01T14:23:18;10.15;;;4.85;;
70228;SDS011;57617;51.988;5.854;2023-03-01T14:25:50;7.55;;;4.20;;
70228;SDS011;57617;51.988;5.854;2023-03-01T14:28:18;9.15;;;4.60;;
70228;SDS011;57617;51.988;5.854;2023-03-01T14:30:50;7.43;;;4.25;;
70228;SDS011;57617;51.988;5.854;2023-03-01T14:33:21;6.88;;;4.18;;
70228;SDS011;57617;51.988;5.854;2023-03-01T14:35:54;8.90;;;4.57;;
70228;SDS011;57617;51.988;5.854;2023-03-01T14:38:33;8.77;;;4.38;;
70228;SDS011;57617;51.988;5.854;2023-03-01T14:41:18;7.32;;;4.28;;
70228;SDS011;57617;51.988;5.854;2023-03-01T14:43:47;8.93;;;4.32;;
70228;SDS011;57617;51.988;5.854;2023-03-01T14:46:23;9.07;;;4.18;;
70228;SDS011;57617;51.988;5.854;2023-03-01T14:48:51;8.07;;;4.40;;
70228;SDS011;57617;51.988;5.854;2023-03-01T14:51:19;7.75;;;4.18;;
70228;SDS011;57617;51.988;5.854;2023-03-01T14:53:44;8.10;;;3.90;;
70228;SDS011;57617;51.988;5.854;2023-03-01T14:56:13;8.38;;;4.32;;
70228;SDS011;57617;51.988;5.854;2023-03-01T14:58:42;9.25;;;4.03;;
70228;SDS011;57617;51.988;5.854;2023-03-01T15:01:10;7.82;;;4.20;;
70228;SDS011;57617;51.988;5.854;2023-03-01T15:03:41;8.10;;;4.20;;
70228;SDS011;57617;51.988;5.854;2023-03-01T15:06:09;10.00;;;4.00;;
70228;SDS011;57617;51.988;5.854;2023-03-01T15:08:36;8.00;;;3.78;;
70228;SDS011;57617;51.988;5.854;2023-03-01T15:11:17;7.90;;;3.97;;
70228;SDS011;57617;51.988;5.854;2023-03-01T15:13:54;6.60;;;3.65;;
70228;SDS011;57617;51.988;5.854;2023-03-01T15:16:24;6.95;;;4.00;;
70228;SDS011;57617;51.988;5.854;2023-03-01T15:18:59;6.85;;;4.10;;
70228;SDS011;57617;51.988;5.854;2023-03-01T15:21:27;7.40;;;3.63;;
70228;SDS011;57617;51.988;5.854;2023-03-01T15:23:58;7.82;;;4.10;;
70228;SDS011;57617;51.988;5.854;2023-03-01T15:26:30;7.90;;;4.00;;
70228;SDS011;57617;51.988;5.854;2023-03-01T15:29:00;7.40;;;3.92;;
70228;SDS011;57617;51.988;5.854;2023-03-01T15:31:36;6.32;;;3.78;;
70228;SDS011;57617;51.988;5.854;2023-03-01T15:36:52;6.18;;;3.55;;
70228;SDS011;57617;51.988;5.854;2023-03-01T15:39:27;8.20;;;3.45;;
70228;SDS011;57617;51.988;5.854;2023-03-01T15:41:55;6.30;;;3.60;;
70228;SDS011;57617;51.988;5.854;2023-03-01T15:44:33;5.97;;;3.50;;
70228;SDS011;57617;51.988;5.854;2023-03-01T15:47:00;7.30;;;3.60;;
70228;SDS011;57617;51.988;5.854;2023-03-01T15:49:30;7.47;;;3.53;;
70228;SDS011;57617;51.988;5.854;2023-03-01T15:52:25;9.20;;;3.25;;
70228;SDS011;57617;51.988;5.854;2023-03-01T15:54:56;5.18;;;3.05;;
70228;SDS011;57617;51.988;5.854;2023-03-01T15:57:24;5.95;;;3.35;;
70228;SDS011;57617;51.988;5.854;2023-03-01T15:59:50;7.95;;;3.55;;
70228;SDS011;57617;51.988;5.854;2023-03-01T16:02:15;6.95;;;3.28;;
70228;SDS011;57617;51.988;5.854;2023-03-01T16:04:40;4.85;;;2.97;;
70228;SDS011;57617;51.988;5.854;2023-03-01T16:07:06;5.60;;;2.97;;
70228;SDS011;57617;51.988;5.854;2023-03-01T16:09:31;4.93;;;2.92;;
70228;SDS011;57617;51.988;5.854;2023-03-01T16:11:57;7.15;;;3.13;;
70228;SDS011;57617;51.988;5.854;2023-03-01T16:14:22;4.60;;;2.83;;
70228;SDS011;57617;51.988;5.854;2023-03-01T16:16:48;4.95;;;2.97;;
70228;SDS011;57617;51.988;5.854;2023-03-01T16:19:13;6.35;;;2.97;;
70228;SDS011;57617;51.988;5.854;2023-03-01T16:21:39;6.97;;;2.78;;
70228;SDS011;57617;51.988;5.854;2023-03-01T16:24:05;6.50;;;3.08;;
70228;SDS011;57617;51.988;5.854;2023-03-01T16:26:31;5.40;;;3.20;;